createdAt,value
2022-09-28T00:02:28.141Z,9.05
2022-09-28T00:05:14.605Z,6.43
2022-09-28T00:08:01.090Z,7.80
2022-09-28T00:10:54.979Z,11.07
2022-09-28T00:13:43.007Z,8.63
2022-09-28T00:16:32.904Z,8.15
2022-09-28T00:19:18.947Z,7.60
2022-09-28T00:22:05.164Z,5.82
2022-09-28T00:24:51.125Z,6.90
2022-09-28T00:27:36.908Z,8.00
2022-09-28T00:30:23.008Z,7.00
2022-09-28T00:33:08.708Z,7.55
2022-09-28T00:35:56.402Z,8.65
2022-09-28T00:38:42.894Z,5.70
2022-09-28T00:41:29.816Z,3.92
2022-09-28T00:44:34.621Z,4.65
2022-09-28T00:47:23.567Z,8.63
2022-09-28T00:50:32.065Z,4.72
2022-09-28T00:53:22.068Z,5.25
2022-09-28T00:56:13.548Z,9.88
2022-09-28T00:59:00.143Z,6.45
2022-09-28T01:01:46.851Z,9.02
2022-09-28T01:04:33.168Z,5.10
2022-09-28T01:07:20.288Z,6.40
2022-09-28T01:10:07.434Z,7.13
2022-09-28T01:12:55.807Z,6.35
2022-09-28T01:15:51.958Z,8.45
2022-09-28T01:18:53.854Z,3.88
2022-09-28T01:22:17.910Z,4.15
2022-09-28T01:25:12.346Z,8.70
2022-09-28T01:28:07.108Z,4.18
2022-09-28T01:31:00.376Z,4.32
2022-09-28T01:33:50.505Z,5.20
2022-09-28T01:36:42.368Z,4.30
2022-09-28T01:39:38.958Z,4.27
2022-09-28T01:42:28.194Z,14.77
2022-09-28T01:45:22.924Z,8.27
2022-09-28T01:48:11.718Z,2.88
2022-09-28T01:50:59.776Z,8.68
2022-09-28T01:53:52.841Z,5.50
2022-09-28T01:56:46.024Z,3.70
2022-09-28T01:59:33.794Z,13.48
2022-09-28T02:02:25.306Z,4.70
2022-09-28T02:05:18.521Z,13.27
2022-09-28T02:08:21.788Z,10.73
2022-09-28T02:11:19.639Z,9.98
2022-09-28T02:14:09.102Z,4.03
2022-09-28T02:16:55.525Z,7.80
2022-09-28T02:19:47.782Z,13.38
2022-09-28T02:22:43.783Z,4.68
2022-09-28T02:25:36.812Z,6.18
2022-09-28T02:28:23.272Z,3.88
2022-09-28T02:31:10.030Z,12.65
2022-09-28T02:33:57.822Z,8.00
2022-09-28T02:36:45.037Z,13.75
2022-09-28T02:39:31.708Z,5.20
2022-09-28T02:42:27.831Z,7.78
2022-09-28T02:45:25.433Z,8.23
2022-09-28T02:48:41.222Z,10.10
2022-09-28T02:51:36.255Z,5.95
2022-09-28T02:54:52.989Z,4.85
2022-09-28T02:58:02.062Z,6.43
2022-09-28T03:01:15.358Z,11.10
2022-09-28T03:04:04.889Z,5.90
2022-09-28T03:07:00.278Z,12.52
2022-09-28T03:09:56.180Z,7.43
2022-09-28T03:12:44.633Z,6.78
2022-09-28T03:15:32.813Z,7.05
2022-09-28T03:18:19.325Z,6.22
2022-09-28T03:21:05.821Z,4.78
2022-09-28T03:23:51.749Z,3.53
2022-09-28T03:26:40.626Z,5.57
2022-09-28T03:29:27.006Z,7.60
2022-09-28T03:32:18.858Z,13.43
2022-09-28T03:35:05.453Z,6.15
2022-09-28T03:37:55.913Z,9.25
2022-09-28T03:40:43.320Z,6.25
2022-09-28T03:43:31.180Z,6.93
2022-09-28T03:46:19.095Z,8.85
2022-09-28T03:49:12.538Z,9.60
2022-09-28T03:51:58.474Z,12.18
2022-09-28T03:54:48.953Z,16.67
2022-09-28T03:57:35.660Z,17.38
2022-09-28T04:00:21.698Z,17.15
2022-09-28T04:03:08.620Z,10.38
2022-09-28T04:05:54.911Z,10.45
2022-09-28T04:08:43.460Z,10.32
2022-09-28T04:11:47.563Z,4.80
2022-09-28T04:14:37.014Z,6.90
2022-09-28T04:17:23.307Z,4.78
2022-09-28T04:20:09.503Z,7.80
2022-09-28T04:23:17.051Z,6.93
2022-09-28T04:26:04.798Z,4.85
2022-09-28T04:29:09.189Z,5.57
2022-09-28T04:31:55.888Z,12.82
2022-09-28T04:34:54.132Z,5.13
2022-09-28T04:37:40.703Z,7.85
2022-09-28T04:40:26.955Z,8.38
2022-09-28T04:43:12.829Z,8.18
2022-09-28T04:46:00.466Z,10.70
2022-09-28T04:48:50.781Z,10.35
2022-09-28T04:52:04.796Z,16.33
2022-09-28T04:54:52.615Z,15.45
2022-09-28T04:57:38.639Z,11.35
2022-09-28T05:00:24.610Z,13.07
2022-09-28T05:03:24.954Z,14.93
2022-09-28T05:06:27.981Z,16.92
2022-09-28T05:09:19.468Z,11.75
2022-09-28T05:12:06.407Z,9.38
2022-09-28T05:14:52.765Z,12.98
2022-09-28T05:17:38.888Z,16.45
2022-09-28T05:20:47.497Z,8.88
2022-09-28T05:23:34.661Z,13.98
2022-09-28T05:26:21.101Z,19.55
2022-09-28T05:29:07.981Z,12.93
2022-09-28T05:32:06.015Z,9.15
2022-09-28T05:34:55.907Z,12.15
2022-09-28T05:37:46.560Z,30.83
2022-09-28T05:40:32.797Z,21.20
2022-09-28T05:43:18.799Z,14.63
2022-09-28T05:46:05.962Z,17.88
2022-09-28T05:48:55.943Z,18.65
2022-09-28T05:51:43.006Z,16.48
2022-09-28T05:54:28.835Z,19.38
2022-09-28T05:57:15.050Z,12.70
2022-09-28T06:00:01.454Z,28.05
2022-09-28T06:02:56.407Z,26.33
2022-09-28T06:05:42.604Z,17.80
2022-09-28T06:08:28.560Z,14.52
2022-09-28T06:11:27.028Z,12.75
2022-09-28T06:14:14.483Z,17.92
2022-09-28T06:17:00.837Z,19.83
2022-09-28T06:19:47.722Z,15.18
2022-09-28T06:22:54.554Z,23.65
2022-09-28T06:25:40.950Z,17.42
2022-09-28T06:28:26.997Z,23.02
2022-09-28T06:31:12.923Z,28.75
2022-09-28T06:34:04.192Z,50.70
2022-09-28T06:36:50.276Z,21.30
2022-09-28T06:39:36.183Z,17.65
2022-09-28T06:42:22.114Z,33.47
2022-09-28T06:45:28.252Z,20.15
2022-09-28T06:48:50.155Z,28.00
2022-09-28T06:51:55.111Z,23.27
2022-09-28T06:54:53.113Z,17.92
2022-09-28T06:57:48.582Z,16.75
2022-09-28T07:00:36.071Z,13.82
2022-09-28T07:03:23.172Z,23.58
2022-09-28T07:06:31.014Z,21.30
2022-09-28T07:09:32.987Z,25.70
2022-09-28T07:12:39.889Z,19.83
2022-09-28T07:15:44.892Z,21.73
2022-09-28T07:18:33.532Z,21.95
2022-09-28T07:21:27.363Z,18.77
2022-09-28T07:24:17.719Z,14.30
2022-09-28T07:27:28.125Z,17.35
2022-09-28T07:30:34.819Z,11.82
2022-09-28T07:33:40.888Z,17.92
2022-09-28T07:36:46.809Z,12.00
2022-09-28T07:39:52.572Z,12.63
2022-09-28T07:42:38.495Z,12.23
2022-09-28T07:45:24.990Z,18.10
2022-09-28T07:54:13.724Z,16.00
2022-09-28T07:57:21.079Z,14.13
2022-09-28T08:00:29.805Z,11.75
2022-09-28T08:03:19.937Z,14.73
2022-09-28T08:06:09.855Z,16.10
2022-09-28T08:08:56.952Z,16.80
2022-09-28T08:11:54.854Z,18.58
2022-09-28T08:15:04.589Z,23.98
2022-09-28T08:18:06.351Z,14.70
2022-09-28T08:21:11.752Z,18.08
2022-09-28T08:23:57.598Z,12.48
2022-09-28T08:26:44.289Z,12.55
2022-09-28T08:29:33.635Z,8.68
2022-09-28T08:32:49.387Z,9.68
2022-09-28T08:35:58.913Z,11.88
2022-09-28T08:39:10.698Z,15.75
2022-09-28T08:42:32.327Z,17.52
2022-09-28T08:45:51.185Z,13.00
2022-09-28T08:49:26.565Z,11.13
2022-09-28T08:52:35.968Z,7.80
2022-09-28T08:55:45.267Z,8.98
2022-09-28T08:58:34.337Z,11.75
2022-09-28T09:01:21.379Z,11.93
2022-09-28T09:04:09.194Z,13.70
2022-09-28T09:07:39.482Z,9.93
2022-09-28T09:10:42.677Z,15.57
2022-09-28T09:13:45.805Z,14.15
2022-09-28T09:16:39.611Z,15.13
2022-09-28T09:19:45.467Z,8.32
2022-09-28T09:22:48.643Z,7.78
2022-09-28T09:25:50.893Z,5.40
2022-09-28T09:29:11.617Z,6.82
2022-09-28T09:32:10.047Z,7.05
2022-09-28T09:35:28.488Z,10.20
2022-09-28T09:38:27.836Z,8.77
2022-09-28T09:41:58.172Z,10.57
2022-09-28T09:45:06.146Z,9.02
2022-09-28T09:48:43.387Z,9.80
2022-09-28T09:52:12.990Z,6.57
2022-09-28T09:55:14.165Z,11.10
2022-09-28T09:58:15.994Z,10.27
2022-09-28T10:01:12.542Z,8.07
2022-09-28T10:04:26.342Z,6.80
2022-09-28T10:07:43.298Z,7.88
2022-09-28T10:10:34.524Z,4.97
2022-09-28T10:13:29.397Z,12.18
2022-09-28T10:16:19.128Z,9.18
2022-09-28T10:19:15.637Z,9.02
2022-09-28T10:22:28.583Z,8.95
2022-09-28T10:25:18.220Z,4.75
2022-09-28T10:28:06.370Z,6.47
2022-09-28T10:30:53.117Z,7.60
2022-09-28T10:33:39.121Z,5.93
2022-09-28T10:36:26.308Z,9.07
2022-09-28T10:39:58.241Z,7.95
2022-09-28T10:42:47.038Z,10.82
2022-09-28T10:45:36.417Z,13.30
2022-09-28T10:48:23.047Z,14.43
2022-09-28T10:51:09.287Z,11.02
2022-09-28T10:54:02.485Z,6.47
2022-09-28T10:57:28.341Z,7.75
2022-09-28T11:00:39.392Z,5.97
2022-09-28T11:03:50.352Z,6.50
2022-09-28T11:06:39.433Z,4.75
2022-09-28T11:09:31.501Z,6.13
2022-09-28T11:12:26.311Z,7.28
2022-09-28T11:15:38.858Z,6.32
2022-09-28T11:18:31.889Z,6.03
2022-09-28T11:21:26.138Z,6.57
2022-09-28T11:24:26.048Z,7.25
2022-09-28T11:27:34.185Z,6.43
2022-09-28T11:30:24.859Z,5.70
2022-09-28T11:33:42.569Z,6.22
2022-09-28T11:40:01.684Z,10.10
2022-09-28T11:43:00.547Z,8.00
2022-09-28T11:45:55.044Z,4.38
2022-09-28T11:48:58.281Z,3.85
2022-09-28T11:51:45.966Z,5.28
2022-09-28T11:54:43.208Z,7.82
2022-09-28T11:57:35.890Z,8.73
2022-09-28T12:00:22.495Z,7.15
2022-09-28T12:03:29.026Z,6.20
2022-09-28T12:06:19.454Z,3.65
2022-09-28T12:09:11.622Z,4.55
2022-09-28T12:12:34.585Z,8.43
2022-09-28T12:15:59.557Z,6.63
2022-09-28T12:19:08.219Z,3.70
2022-09-28T12:21:57.084Z,10.98
2022-09-28T12:24:47.543Z,12.23
2022-09-28T12:27:51.651Z,5.75
2022-09-28T12:30:40.753Z,4.95
2022-09-28T12:33:26.917Z,6.57
2022-09-28T12:36:19.760Z,7.13
2022-09-28T12:39:40.618Z,11.35
2022-09-28T12:42:53.045Z,5.55
2022-09-28T12:46:11.998Z,7.53
2022-09-28T12:50:13.832Z,5.85
2022-09-28T12:52:36.910Z,8.20
2022-09-28T12:55:44.189Z,6.55
2022-09-28T12:58:52.231Z,6.25
2022-09-28T13:01:43.230Z,4.82
2022-09-28T13:04:56.945Z,6.93
2022-09-28T13:07:53.970Z,4.47
2022-09-28T13:10:44.415Z,9.68
2022-09-28T13:14:17.784Z,3.97
2022-09-28T13:17:27.065Z,7.40
2022-09-28T13:20:31.265Z,3.40
2022-09-28T13:23:22.002Z,5.20
2022-09-28T13:26:31.798Z,6.53
2022-09-28T13:29:19.268Z,4.68
2022-09-28T13:32:08.239Z,7.00
2022-09-28T13:34:54.849Z,5.75
2022-09-28T13:37:41.585Z,4.63
2022-09-28T13:41:04.709Z,7.15
2022-09-28T13:44:02.999Z,8.20
2022-09-28T13:46:55.228Z,10.07
2022-09-28T13:53:11.806Z,10.40
2022-09-28T13:56:28.439Z,7.05
2022-09-28T13:59:24.883Z,5.57
2022-09-28T14:02:37.779Z,7.85
2022-09-28T14:05:25.465Z,7.57
2022-09-28T14:08:23.570Z,5.70
2022-09-28T14:11:24.804Z,8.20
2022-09-28T14:14:11.898Z,9.05
2022-09-28T14:17:27.229Z,7.88
2022-09-28T14:20:15.611Z,8.80
2022-09-28T14:23:25.310Z,13.00
2022-09-28T14:26:11.360Z,12.27
2022-09-28T14:29:28.796Z,20.38
2022-09-28T14:32:25.113Z,21.65
2022-09-28T14:35:20.583Z,15.05
2022-09-28T14:38:33.242Z,14.18
2022-09-28T14:41:33.795Z,16.38
2022-09-28T14:44:20.132Z,12.95
2022-09-28T14:47:33.526Z,12.73
2022-09-28T14:50:28.308Z,13.98
2022-09-28T14:53:20.240Z,12.88
2022-09-28T14:56:08.707Z,8.60
2022-09-28T14:58:57.723Z,9.48
2022-09-28T15:01:51.532Z,10.38
2022-09-28T15:04:43.073Z,17.67
2022-09-28T15:07:37.533Z,11.23
2022-09-28T15:10:31.326Z,12.32
2022-09-28T15:13:28.222Z,9.95
2022-09-28T15:16:16.534Z,7.70
2022-09-28T15:19:24.607Z,12.40
2022-09-28T15:22:17.955Z,13.25
2022-09-28T15:25:13.751Z,9.10
2022-09-28T15:28:06.837Z,11.35
2022-09-28T15:31:00.458Z,14.48
2022-09-28T15:34:04.855Z,9.68
2022-09-28T15:36:51.134Z,12.05
2022-09-28T15:39:37.127Z,17.13
2022-09-28T15:42:23.537Z,13.52
2022-09-28T15:45:27.772Z,14.13
2022-09-28T15:48:27.843Z,14.70
2022-09-28T15:51:13.949Z,22.92
2022-09-28T15:54:19.538Z,9.77
2022-09-28T15:57:06.053Z,12.70
2022-09-28T15:59:59.289Z,13.82
2022-09-28T16:03:08.782Z,7.68
2022-09-28T16:05:57.809Z,8.68
2022-09-28T16:08:45.678Z,13.35
2022-09-28T16:11:38.228Z,8.80
2022-09-28T16:14:25.124Z,10.43
2022-09-28T16:17:17.392Z,11.82
2022-09-28T16:20:18.866Z,11.43
2022-09-28T16:23:34.607Z,14.23
2022-09-28T16:26:34.137Z,15.23
2022-09-28T16:29:40.817Z,16.17
2022-09-28T16:32:26.737Z,20.83
2022-09-28T16:35:23.083Z,20.10
2022-09-28T16:38:17.117Z,20.08
2022-09-28T16:41:03.399Z,19.60
2022-09-28T16:43:55.136Z,19.98
2022-09-28T16:46:42.890Z,11.88
2022-09-28T16:49:31.630Z,16.75
2022-09-28T16:52:37.786Z,17.52
2022-09-28T16:55:39.436Z,15.98
2022-09-28T16:58:27.824Z,13.48
2022-09-28T17:01:14.041Z,13.85
2022-09-28T17:04:00.010Z,9.05
2022-09-28T17:06:46.037Z,13.10
2022-09-28T17:09:32.067Z,10.57
2022-09-28T17:12:24.681Z,15.13
2022-09-28T17:15:10.915Z,23.27
2022-09-28T17:17:57.529Z,18.50
2022-09-28T17:20:49.265Z,20.73
2022-09-28T17:23:35.720Z,15.82
2022-09-28T17:26:29.262Z,15.27
2022-09-28T17:29:15.925Z,12.82
2022-09-28T17:32:02.483Z,14.43
2022-09-28T17:35:00.743Z,13.98
2022-09-28T17:37:55.049Z,17.17
2022-09-28T17:40:45.545Z,14.82
2022-09-28T17:43:31.904Z,13.68
2022-09-28T17:46:23.018Z,16.70
2022-09-28T17:49:11.482Z,21.67
2022-09-28T17:51:57.631Z,19.33
2022-09-28T17:54:44.497Z,20.45
2022-09-28T17:57:30.692Z,18.90
2022-09-28T18:00:17.681Z,20.92
2022-09-28T18:03:03.747Z,19.15
2022-09-28T18:05:58.573Z,18.38
2022-09-28T18:08:44.534Z,29.20
2022-09-28T18:11:32.170Z,30.83
2022-09-28T18:14:18.037Z,21.17
2022-09-28T18:17:04.282Z,22.42
2022-09-28T18:19:50.614Z,23.95
2022-09-28T18:22:37.161Z,51.08
2022-09-28T18:25:23.193Z,21.70
2022-09-28T18:28:10.180Z,42.33
2022-09-28T18:30:56.320Z,19.08
2022-09-28T18:33:43.343Z,23.38
2022-09-28T18:36:33.312Z,19.77
2022-09-28T18:39:19.387Z,21.08
2022-09-28T18:42:05.877Z,21.80
2022-09-28T18:44:52.237Z,18.10
2022-09-28T18:47:39.114Z,18.23
2022-09-28T18:50:25.515Z,18.08
2022-09-28T18:53:12.036Z,9.27
2022-09-28T18:55:58.193Z,16.15
2022-09-28T18:58:45.038Z,23.90
2022-09-28T19:01:31.672Z,20.15
2022-09-28T19:04:20.074Z,21.63
2022-09-28T19:07:07.372Z,16.83
2022-09-28T19:09:53.890Z,13.75
2022-09-28T19:12:40.089Z,17.02
2022-09-28T19:15:26.204Z,8.40
2022-09-28T19:18:12.399Z,13.27
2022-09-28T19:21:05.323Z,12.38
2022-09-28T19:23:53.626Z,18.42
2022-09-28T19:26:40.060Z,13.85
2022-09-28T19:29:26.328Z,21.02
2022-09-28T19:32:12.775Z,17.65
2022-09-28T19:34:59.365Z,55.95
2022-09-28T19:37:46.775Z,33.92
2022-09-28T19:40:36.927Z,32.42
2022-09-28T19:43:22.765Z,30.08
2022-09-28T19:46:10.579Z,40.75
2022-09-28T19:49:00.824Z,36.25
2022-09-28T19:52:11.557Z,21.23
2022-09-28T19:54:58.201Z,12.80
2022-09-28T19:57:47.930Z,23.27
2022-09-28T20:00:34.048Z,21.55
2022-09-28T20:03:19.990Z,24.25
2022-09-28T20:06:06.262Z,29.30
2022-09-28T20:08:52.832Z,34.72
2022-09-28T20:11:39.117Z,32.85
2022-09-28T20:14:28.141Z,27.20
2022-09-28T20:17:16.563Z,17.90
2022-09-28T20:20:02.800Z,20.30
2022-09-28T20:22:48.781Z,23.02
2022-09-28T20:25:34.974Z,17.80
2022-09-28T20:28:20.886Z,18.67
2022-09-28T20:31:28.615Z,15.77
2022-09-28T20:34:14.924Z,22.42
2022-09-28T20:37:01.633Z,21.35
2022-09-28T20:39:47.947Z,23.42
2022-09-28T20:42:34.238Z,20.75
2022-09-28T20:45:20.065Z,31.48
2022-09-28T20:48:06.505Z,16.30
2022-09-28T20:51:03.210Z,30.50
2022-09-28T20:53:54.493Z,17.23
2022-09-28T20:56:40.771Z,16.85
2022-09-28T20:59:27.789Z,26.63
2022-09-28T21:02:16.011Z,15.23
2022-09-28T21:05:02.185Z,22.85
2022-09-28T21:07:47.982Z,25.65
2022-09-28T21:10:33.737Z,21.83
2022-09-28T21:13:23.532Z,15.18
2022-09-28T21:16:15.060Z,15.80
2022-09-28T21:19:01.441Z,24.58
2022-09-28T21:21:47.608Z,20.58
2022-09-28T21:24:33.657Z,21.33
2022-09-28T21:27:19.789Z,16.10
2022-09-28T21:30:06.407Z,28.17
2022-09-28T21:32:52.645Z,24.60
2022-09-28T21:35:41.262Z,22.02
2022-09-28T21:38:27.278Z,27.50
2022-09-28T21:41:13.411Z,27.35
2022-09-28T21:43:59.709Z,27.30
2022-09-28T21:46:45.893Z,24.67
2022-09-28T21:49:32.268Z,15.63
2022-09-28T21:52:18.267Z,18.60
2022-09-28T21:55:04.515Z,29.83
2022-09-28T21:57:51.451Z,29.85
2022-09-28T22:00:37.843Z,17.08
2022-09-28T22:03:24.597Z,19.38
2022-09-28T22:06:11.160Z,15.93
2022-09-28T22:08:57.458Z,16.45
2022-09-28T22:11:43.473Z,23.55
2022-09-28T22:14:29.348Z,20.90
2022-09-28T22:17:15.254Z,24.08
2022-09-28T22:20:01.480Z,19.98
2022-09-28T22:22:50.866Z,19.80
2022-09-28T22:25:36.713Z,36.20
2022-09-28T22:28:22.816Z,20.63
2022-09-28T22:31:09.007Z,20.25
2022-09-28T22:33:55.642Z,15.60
2022-09-28T22:36:41.657Z,17.77
2022-09-28T22:39:27.443Z,14.75
2022-09-28T22:42:13.376Z,21.15
2022-09-28T22:44:59.561Z,16.00
2022-09-28T22:47:45.531Z,16.65
2022-09-28T22:50:31.637Z,19.75
2022-09-28T22:53:18.668Z,11.18
2022-09-28T22:56:06.010Z,20.15
2022-09-28T22:58:52.429Z,17.13
2022-09-28T23:01:39.030Z,28.60
2022-09-28T23:04:25.170Z,17.23
2022-09-28T23:07:11.172Z,21.17
2022-09-28T23:09:58.775Z,20.30
2022-09-28T23:12:44.625Z,20.27
2022-09-28T23:15:30.504Z,14.30
2022-09-28T23:18:16.767Z,15.45
2022-09-28T23:21:05.613Z,17.30
2022-09-28T23:23:56.771Z,25.30
2022-09-28T23:26:42.725Z,22.38
2022-09-28T23:29:28.743Z,20.95
2022-09-28T23:32:16.654Z,20.73
2022-09-28T23:35:02.674Z,15.48
2022-09-28T23:37:51.793Z,15.15
2022-09-28T23:40:37.965Z,17.15
2022-09-28T23:43:23.885Z,10.85
2022-09-28T23:46:09.876Z,17.75
2022-09-28T23:48:55.669Z,16.60
2022-09-28T23:51:41.568Z,11.23
2022-09-28T23:54:27.549Z,16.42
2022-09-28T23:57:13.529Z,15.90
2022-09-28T23:59:59.463Z,12.82
